Time;durP1;ratioP1;P1;durP2;ratioP2;P2;SDS_P1;SDS_P2;PMS_P1;PMS_P2;Temp;Humidity;BMP_temperature;BMP_pressure;BME280_temperature;BME280_humidity;BME280_pressure;Samples;Min_cycle;Max_cycle;Signal;HPM_P1;HPM_P2
2022/10/30 00:01:50;;;;;;;14.68;3.63;;;;;;;22.45;46.18;101465.09;4992515;28;20129;-64
2022/10/30 00:04:15;;;;;;;13.73;4.45;;;;;;;22.45;46.28;101471.41;4984350;28;20030;-63
2022/10/30 00:06:40;;;;;;;9.95;4.43;;;;;;;22.41;45.87;101472.84;4987107;28;20030;-63
2022/10/30 00:09:06;;;;;;;12.20;4.22;;;;;;;22.41;46.23;101481.06;4953544;28;20093;-63
2022/10/30 00:11:31;;;;;;;11.02;3.67;;;;;;;22.40;46.75;101484.81;4989835;28;20054;-63
2022/10/30 00:13:57;;;;;;;11.27;3.78;;;;;;;22.37;46.91;101478.88;4994182;28;20435;-64
2022/10/30 00:16:22;;;;;;;10.70;3.75;;;;;;;22.34;46.25;101485.56;4989860;28;20134;-64
2022/10/30 00:18:47;;;;;;;8.82;3.90;;;;;;;22.31;46.05;101483.22;4970428;28;20031;-64
2022/10/30 00:21:14;;;;;;;6.72;3.17;;;;;;;22.33;46.09;101483.03;4993542;28;20053;-63
2022/10/30 00:23:50;;;;;;;6.20;3.47;;;;;;;22.30;46.78;101473.34;5002097;28;20381;-64
2022/10/30 00:26:17;;;;;;;12.00;4.68;;;;;;;22.28;46.35;101469.13;4986026;28;20030;-64
2022/10/30 00:28:42;;;;;;;8.70;3.63;;;;;;;22.25;46.73;101481.22;4984263;28;20390;-64
2022/10/30 00:31:08;;;;;;;9.32;3.83;;;;;;;22.23;46.25;101475.13;4984698;28;20033;-64
2022/10/30 00:33:33;;;;;;;9.27;2.85;;;;;;;22.17;46.83;101467.69;4984951;28;20033;-64
2022/10/30 00:35:59;;;;;;;6.65;3.13;;;;;;;22.16;46.17;101468.75;4980911;28;20045;-64
2022/10/30 00:38:25;;;;;;;11.93;3.78;;;;;;;22.13;46.41;101463.66;4956354;28;20054;-64
2022/10/30 00:40:50;;;;;;;8.43;3.05;;;;;;;22.09;46.00;101458.75;4940106;29;20410;-63
2022/10/30 00:43:32;;;;;;;6.28;2.97;;;;;;;22.05;46.24;101458.28;4940394;28;20382;-64
2022/10/30 00:46:06;;;;;;;10.07;3.38;;;;;;;21.98;46.40;101462.78;4957419;28;20024;-65
2022/10/30 00:48:33;;;;;;;9.75;3.47;;;;;;;21.94;46.99;101456.84;4957650;29;20058;-64
2022/10/30 00:51:00;;;;;;;8.80;2.97;;;;;;;21.89;46.50;101456.56;4940171;29;20110;-64
2022/10/30 00:53:26;;;;;;;10.32;3.13;;;;;;;21.86;46.64;101450.66;4956118;28;20035;-63
2022/10/30 00:55:55;;;;;;;13.95;3.85;;;;;;;21.84;46.99;101449.97;4956005;28;20035;-64
2022/10/30 00:58:31;;;;;;;13.30;4.10;;;;;;;21.81;47.12;101455.78;4955780;28;20489;-63
2022/10/30 01:00:59;;;;;;;10.57;3.22;;;;;;;21.77;46.83;101454.50;4940413;29;20118;-63
2022/10/30 01:03:26;;;;;;;13.15;3.95;;;;;;;21.73;46.58;101453.16;4956376;29;20030;-64
2022/10/30 01:05:54;;;;;;;6.03;3.22;;;;;;;21.71;46.82;101458.81;4956363;28;20488;-64
2022/10/30 01:08:19;;;;;;;10.23;3.88;;;;;;;21.68;46.62;101456.44;4940167;29;20030;-63
2022/10/30 01:10:46;;;;;;;8.60;4.00;;;;;;;21.66;46.81;101452.22;4956240;29;20389;-63
2022/10/30 01:13:12;;;;;;;7.93;3.25;;;;;;;21.63;46.25;101458.03;4940117;29;20075;-64
2022/10/30 01:15:56;;;;;;;7.15;3.92;;;;;;;21.60;46.62;101459.25;4956101;29;20024;-63
2022/10/30 01:18:43;;;;;;;12.63;3.97;;;;;;;21.54;46.54;101450.97;4956119;29;20023;-63
2022/10/30 01:21:12;;;;;;;6.43;3.58;;;;;;;21.51;46.12;101448.59;4957280;29;20038;-63
2022/10/30 01:24:18;;;;;;;7.85;3.67;;;;;;;21.46;46.80;101447.28;4956256;28;20038;-63
2022/10/30 01:26:58;;;;;;;6.75;3.03;;;;;;;21.42;46.34;101456.00;4955914;29;20492;-64
2022/10/30 01:29:57;;;;;;;6.30;2.58;;;;;;;21.35;46.20;101461.38;4955874;29;20037;-64
2022/10/30 01:32:52;;;;;;;4.82;2.75;;;;;;;21.28;47.11;101463.13;4956063;29;20130;-63
2022/10/30 01:35:20;;;;;;;14.20;3.80;;;;;;;21.22;47.26;101461.13;4955840;29;20023;-63
2022/10/30 01:38:07;;;;;;;12.82;3.53;;;;;;;21.19;46.46;101461.47;4956776;28;20026;-63
2022/10/30 01:40:33;;;;;;;6.82;3.38;;;;;;;21.16;47.25;101458.28;4975108;28;20050;-63
2022/10/30 01:42:58;;;;;;;8.55;3.25;;;;;;;21.16;47.11;101467.28;4942909;28;20034;-63
2022/10/30 01:45:49;;;;;;;5.95;3.70;;;;;;;21.14;46.90;101461.19;4959158;28;20035;-64
2022/10/30 01:48:40;;;;;;;6.03;3.30;;;;;;;21.11;47.24;101475.16;4958445;28;20043;-63
2022/10/30 01:51:45;;;;;;;10.77;4.18;;;;;;;21.09;47.20;101465.50;4974726;28;20473;-63
2022/10/30 01:54:31;;;;;;;8.00;2.92;;;;;;;21.06;47.02;101461.22;4964337;28;20097;-63
2022/10/30 01:57:01;;;;;;;6.57;2.90;;;;;;;21.04;47.02;101467.88;4975915;28;20481;-63
2022/10/30 01:59:38;;;;;;;6.70;3.28;;;;;;;21.03;47.28;101467.03;4975836;28;20535;-63
2022/10/30 02:02:03;;;;;;;7.88;2.92;;;;;;;21.01;47.16;101468.25;4973990;28;20041;-63
2022/10/30 02:04:29;;;;;;;6.95;3.13;;;;;;;21.00;47.13;101464.66;4975400;28;20489;-63
2022/10/30 02:06:55;;;;;;;7.22;3.38;;;;;;;20.96;47.34;101463.34;4957906;28;20540;-64
2022/10/30 02:09:20;;;;;;;10.68;3.50;;;;;;;20.92;46.80;101454.69;4958272;28;20126;-63
2022/10/30 02:11:47;;;;;;;9.73;3.75;;;;;;;20.89;46.61;101455.03;4973373;28;20105;-63
2022/10/30 02:14:16;;;;;;;10.95;3.75;;;;;;;20.86;46.95;101465.44;4973883;28;20070;-63
2022/10/30 02:16:44;;;;;;;8.38;3.72;;;;;;;20.87;46.70;101456.25;4957590;28;20493;-63
2022/10/30 02:19:10;;;;;;;6.25;3.17;;;;;;;20.85;47.29;101461.88;4957540;28;20030;-63
2022/10/30 02:21:35;;;;;;;6.75;3.65;;;;;;;20.85;47.12;101459.16;4958021;28;20066;-63
2022/10/30 02:24:00;;;;;;;9.05;3.80;;;;;;;20.86;46.97;101465.44;4957493;28;20035;-63
2022/10/30 02:26:26;;;;;;;6.30;3.90;;;;;;;20.83;46.93;101458.47;4974881;28;20548;-63
2022/10/30 02:28:51;;;;;;;5.80;4.32;;;;;;;20.81;47.24;101462.41;4973659;28;20501;-63
2022/10/30 02:31:18;;;;;;;7.47;3.97;;;;;;;20.78;47.12;101462.78;4957569;28;20101;-63
2022/10/30 02:33:46;;;;;;;6.25;2.92;;;;;;;20.78;46.82;101471.81;4958081;28;20037;-63
2022/10/30 02:36:14;;;;;;;10.60;3.75;;;;;;;20.75;47.06;101474.03;4957344;28;20050;-64
2022/10/30 02:38:40;;;;;;;11.38;3.50;;;;;;;20.77;47.46;101477.44;4973615;28;20039;-63
2022/10/30 02:41:05;;;;;;;12.02;3.72;;;;;;;20.77;46.74;101472.00;4957221;28;20523;-63
2022/10/30 02:43:30;;;;;;;9.27;3.92;;;;;;;20.77;47.72;101472.00;4941232;28;20062;-63
2022/10/30 02:45:56;;;;;;;7.85;3.20;;;;;;;20.77;46.91;101472.00;4973449;28;20362;-64
2022/10/30 02:48:21;;;;;;;5.95;2.78;;;;;;;20.74;47.12;101475.06;4974518;28;20082;-63
2022/10/30 02:50:46;;;;;;;9.68;4.13;;;;;;;20.72;47.13;101471.66;4973466;28;20101;-63
2022/10/30 02:53:12;;;;;;;8.75;3.17;;;;;;;20.71;46.99;101479.00;4957214;28;20043;-63
2022/10/30 02:55:37;;;;;;;5.70;3.33;;;;;;;20.69;47.37;101475.59;4956897;28;20129;-64
2022/10/30 02:58:02;;;;;;;9.80;3.13;;;;;;;20.66;46.94;101466.97;4973256;28;20038;-63
2022/10/30 03:00:28;;;;;;;5.38;3.03;;;;;;;20.65;47.60;101474.28;4973544;28;20042;-63
2022/10/30 03:02:54;;;;;;;6.18;3.20;;;;;;;20.61;47.54;101474.78;4974309;28;20125;-63
2022/10/30 03:05:20;;;;;;;6.25;3.03;;;;;;;20.59;47.33;101485.00;4973053;28;20080;-63
2022/10/30 03:07:47;;;;;;;8.00;3.25;;;;;;;20.57;46.89;101487.06;4956699;28;20050;-63
2022/10/30 03:10:13;;;;;;;7.32;3.03;;;;;;;20.54;46.90;101487.44;4976980;28;22731;-63
2022/10/30 03:12:38;;;;;;;6.90;2.80;;;;;;;20.52;47.30;101479.44;4992904;28;20555;-63
2022/10/30 03:15:04;;;;;;;7.55;3.47;;;;;;;20.51;46.86;101482.34;4958648;28;20085;-63
2022/10/30 03:17:29;;;;;;;13.45;3.83;;;;;;;20.47;46.92;101484.56;4969717;28;20041;-64
2022/10/30 03:19:55;;;;;;;7.13;2.72;;;;;;;20.50;47.41;101491.53;4992471;28;20038;-63
2022/10/30 03:22:20;;;;;;;7.47;3.22;;;;;;;20.48;47.14;101485.41;4992236;28;20038;-63
2022/10/30 03:24:45;;;;;;;9.38;3.58;;;;;;;20.47;47.76;101481.84;4992620;28;20034;-63
2022/10/30 03:27:11;;;;;;;8.93;3.20;;;;;;;20.44;47.45;101470.44;4992100;28;20038;-64
2022/10/30 03:29:36;;;;;;;8.40;2.95;;;;;;;20.45;47.28;101477.59;4992457;28;20034;-63
2022/10/30 03:32:02;;;;;;;6.05;3.42;;;;;;;20.43;47.02;101480.50;4992009;28;20046;-64
2022/10/30 03:34:27;;;;;;;7.85;3.00;;;;;;;20.40;47.69;101474.56;4975625;28;20035;-64
2022/10/30 03:36:52;;;;;;;10.48;3.10;;;;;;;20.39;47.16;101489.19;4976305;28;20037;-64
2022/10/30 03:39:18;;;;;;;6.93;3.40;;;;;;;20.38;47.79;101482.88;4993342;28;20389;-63
2022/10/30 03:41:43;;;;;;;6.78;2.70;;;;;;;20.35;47.00;101474.25;4992046;28;20615;-63
2022/10/30 03:44:09;;;;;;;5.88;3.03;;;;;;;20.35;47.59;101480.56;4992085;28;20031;-63
2022/10/30 03:46:34;;;;;;;7.78;3.10;;;;;;;20.32;47.34;101473.56;4993070;28;20089;-63
2022/10/30 03:49:01;;;;;;;8.95;3.38;;;;;;;20.31;47.32;101465.59;4991929;28;20471;-64
2022/10/30 03:51:26;;;;;;;7.38;2.72;;;;;;;20.30;47.20;101481.06;4993721;28;20073;-63
2022/10/30 03:53:51;;;;;;;5.20;3.30;;;;;;;20.28;47.08;101483.13;4975879;28;20038;-64
2022/10/30 03:56:18;;;;;;;8.38;3.42;;;;;;;20.28;47.37;101480.41;4991767;28;20117;-63
2022/10/30 03:58:44;;;;;;;5.68;2.83;;;;;;;20.26;47.22;101478.88;4993210;28;20503;-63
2022/10/30 04:01:10;;;;;;;8.32;3.20;;;;;;;20.26;47.63;101476.16;4975733;28;20106;-63
2022/10/30 04:03:35;;;;;;;6.30;2.85;;;;;;;20.26;47.57;101478.88;4976160;28;20038;-63
2022/10/30 04:06:01;;;;;;;5.80;3.00;;;;;;;20.26;47.17;101478.88;4975599;28;20118;-63
2022/10/30 04:08:26;;;;;;;10.48;3.17;;;;;;;20.24;47.31;101481.75;4991741;28;20042;-64
2022/10/30 04:10:51;;;;;;;6.45;3.35;;;;;;;20.21;47.34;101478.53;4991815;28;20039;-63
2022/10/30 04:13:19;;;;;;;4.47;2.08;;;;;;;20.21;47.10;101479.34;4993040;28;20108;-63
2022/10/30 04:15:46;;;;;;;4.57;2.78;;;;;;;20.18;47.00;101471.53;4992180;28;20030;-63
2022/10/30 04:18:12;;;;;;;7.82;3.05;;;;;;;20.17;47.64;101467.16;4975523;28;20511;-63
2022/10/30 04:20:38;;;;;;;8.63;3.25;;;;;;;20.14;47.21;101470.22;4993006;28;20034;-63
2022/10/30 04:23:06;;;;;;;4.57;2.45;;;;;;;20.13;47.17;101473.09;4991798;28;20042;-64
2022/10/30 04:25:33;;;;;;;4.88;2.40;;;;;;;20.10;47.63;101463.41;4975337;28;20106;-63
2022/10/30 04:27:59;;;;;;;8.85;2.67;;;;;;;20.08;47.62;101460.03;4975497;28;20053;-64
2022/10/30 04:30:26;;;;;;;6.43;2.85;;;;;;;20.07;47.89;101463.75;4976148;28;20030;-64
2022/10/30 04:32:53;;;;;;;13.70;2.70;;;;;;;20.04;47.91;101466.88;4975658;28;20113;-63
2022/10/30 04:35:22;;;;;;;11.50;3.15;;;;;;;20.08;47.67;101470.06;4994785;28;20061;-63
2022/10/30 04:38:01;;;;;;;7.40;2.42;;;;;;;20.09;47.60;101471.75;4978730;28;20393;-63
2022/10/30 04:40:29;;;;;;;6.25;2.58;;;;;;;20.07;47.45;101473.81;4995187;28;20071;-63
2022/10/30 04:42:55;;;;;;;7.45;3.17;;;;;;;20.09;48.24;101475.34;4978855;28;20101;-63
2022/10/30 04:45:21;;;;;;;8.20;3.03;;;;;;;20.10;47.33;101477.00;4995347;28;20479;-63
2022/10/30 04:47:46;;;;;;;8.40;2.75;;;;;;;20.12;47.86;101475.00;4994872;28;20061;-64
2022/10/30 04:50:12;;;;;;;7.57;3.22;;;;;;;20.13;47.73;101473.94;4994988;28;20062;-63
2022/10/30 04:52:38;;;;;;;7.28;2.53;;;;;;;20.11;47.79;101465.13;4978689;28;20049;-63
2022/10/30 04:55:03;;;;;;;5.57;3.08;;;;;;;20.15;47.84;101471.91;4994946;28;20026;-63
2022/10/30 04:57:30;;;;;;;7.03;2.83;;;;;;;20.14;48.23;101469.38;4995265;28;20153;-63
2022/10/30 04:59:56;;;;;;;8.77;2.78;;;;;;;20.13;47.86;101463.06;4994917;28;20027;-63
2022/10/30 05:02:21;;;;;;;7.95;2.75;;;;;;;20.13;47.51;101463.06;4978608;28;20575;-63
2022/10/30 05:04:47;;;;;;;6.97;3.47;;;;;;;20.10;47.26;101468.84;4994883;28;20058;-63
2022/10/30 05:07:13;;;;;;;5.20;3.20;;;;;;;20.10;48.17;101477.00;4994685;28;20503;-63
2022/10/30 05:09:38;;;;;;;6.82;3.53;;;;;;;20.06;48.03;101470.25;4995120;28;20105;-64
2022/10/30 05:12:04;;;;;;;4.78;2.88;;;;;;;20.05;47.68;101464.97;4994582;28;20527;-64
2022/10/30 05:14:30;;;;;;;3.08;2.35;;;;;;;20.07;47.53;101462.94;4975086;28;20497;-64
2022/10/30 05:16:55;;;;;;;8.93;3.13;;;;;;;20.05;48.01;101463.09;4967181;28;20041;-63
2022/10/30 05:19:21;;;;;;;8.13;3.03;;;;;;;20.03;48.62;101467.88;4974489;28;20496;-63
2022/10/30 05:21:46;;;;;;;5.05;2.35;;;;;;;20.03;47.88;101462.44;4976627;28;20134;-63
2022/10/30 05:24:12;;;;;;;9.80;2.97;;;;;;;20.01;47.63;101456.31;4959635;28;20035;-63
2022/10/30 05:26:37;;;;;;;7.75;3.38;;;;;;;20.00;47.77;101446.47;4972608;28;20044;-63
2022/10/30 05:29:02;;;;;;;13.40;2.65;;;;;;;19.99;48.20;101443.94;4984996;28;20049;-63
2022/10/30 05:31:28;;;;;;;7.00;2.45;;;;;;;20.00;47.85;101437.44;4975943;28;20480;-63
2022/10/30 05:33:53;;;;;;;5.32;2.35;;;;;;;20.02;47.74;101438.09;4974778;28;20035;-64
2022/10/30 05:36:18;;;;;;;4.78;2.15;;;;;;;20.02;47.13;101438.09;4975004;28;20499;-63
2022/10/30 05:38:45;;;;;;;5.55;3.55;;;;;;;20.01;47.10;101442.72;4974753;28;20035;-64
2022/10/30 05:41:11;;;;;;;5.22;2.40;;;;;;;20.02;48.34;101438.97;4958583;28;20118;-63
2022/10/30 05:43:36;;;;;;;8.38;2.75;;;;;;;20.00;47.65;101435.59;4958302;28;20131;-63
2022/10/30 05:46:01;;;;;;;9.52;2.30;;;;;;;20.00;48.04;101437.44;4957407;28;20062;-64
2022/10/30 05:48:27;;;;;;;5.47;2.53;;;;;;;19.99;47.97;101436.59;4990804;28;20518;-63
2022/10/30 05:50:56;;;;;;;6.15;2.28;;;;;;;19.99;47.82;101439.31;4975602;28;20038;-63
2022/10/30 05:53:22;;;;;;;11.88;2.50;;;;;;;19.96;48.06;101434.22;4975680;28;20113;-63
2022/10/30 05:55:48;;;;;;;5.90;2.95;;;;;;;19.96;47.90;101434.22;4958308;28;20065;-63
2022/10/30 05:58:13;;;;;;;6.20;3.05;;;;;;;19.96;47.94;101436.94;4974331;28;20050;-63
2022/10/30 06:00:40;;;;;;;8.07;3.30;;;;;;;19.94;48.41;101435.41;4958632;28;20433;-64
2022/10/30 06:03:08;;;;;;;5.60;2.83;;;;;;;19.95;48.28;101442.56;4974174;28;20054;-63
2022/10/30 06:05:36;;;;;;;5.57;2.70;;;;;;;19.95;48.04;101442.56;4975403;28;20062;-63
2022/10/30 06:08:03;;;;;;;8.80;3.90;;;;;;;19.93;48.14;101445.47;4974123;28;20508;-63
2022/10/30 06:10:29;;;;;;;9.18;4.90;;;;;;;19.91;48.15;101444.78;4970054;28;20454;-63
2022/10/30 06:12:56;;;;;;;20.15;5.18;;;;;;;19.92;47.67;101456.50;4954618;28;20027;-64
2022/10/30 06:15:21;;;;;;;8.02;3.17;;;;;;;19.91;48.07;101455.66;4939060;29;20090;-63
2022/10/30 06:17:47;;;;;;;9.02;3.08;;;;;;;19.91;48.15;101452.94;4969738;28;20031;-63
2022/10/30 06:20:12;;;;;;;9.32;3.55;;;;;;;19.92;48.14;101454.66;4975096;28;20114;-64
2022/10/30 06:22:38;;;;;;;8.63;3.15;;;;;;;19.91;47.76;101463.81;4973829;28;20035;-63
2022/10/30 06:25:04;;;;;;;6.32;3.22;;;;;;;19.90;47.90;101462.16;4973597;28;20043;-63
2022/10/30 06:27:29;;;;;;;7.38;3.22;;;;;;;19.87;48.18;101451.63;4973914;28;20035;-63
2022/10/30 06:29:54;;;;;;;6.95;2.33;;;;;;;19.85;48.00;101441.94;4957694;28;20501;-64
2022/10/30 06:32:20;;;;;;;9.20;2.80;;;;;;;19.85;47.61;101453.63;4973599;28;20035;-63
2022/10/30 06:34:46;;;;;;;4.20;2.67;;;;;;;19.83;47.91;101458.41;4957495;28;20031;-63
2022/10/30 06:37:11;;;;;;;8.82;2.38;;;;;;;19.77;47.81;101451.78;4957338;28;20054;-63
2022/10/30 06:39:36;;;;;;;9.55;2.75;;;;;;;19.78;47.98;101452.66;4975119;28;20030;-63
2022/10/30 06:42:02;;;;;;;3.90;2.50;;;;;;;19.74;47.93;101452.13;4974798;28;20035;-63
2022/10/30 06:44:27;;;;;;;4.65;2.47;;;;;;;19.77;47.82;101457.22;4989509;28;20031;-64
2022/10/30 06:46:53;;;;;;;8.60;2.60;;;;;;;19.80;47.33;101456.03;4974468;28;20039;-63
2022/10/30 06:49:19;;;;;;;5.63;3.08;;;;;;;19.80;48.26;101450.59;4957284;28;20031;-64
2022/10/30 06:51:45;;;;;;;7.95;3.33;;;;;;;19.82;47.69;101447.72;4957694;28;20027;-64
2022/10/30 06:54:10;;;;;;;7.32;2.75;;;;;;;19.82;47.83;101447.72;4973318;28;20039;-64
2022/10/30 06:56:35;;;;;;;7.60;2.70;;;;;;;19.84;47.62;101443.81;4940794;28;20085;-64
2022/10/30 06:59:01;;;;;;;5.80;2.20;;;;;;;19.83;48.08;101439.38;4973225;28;20054;-63
2022/10/30 07:01:26;;;;;;;6.05;2.88;;;;;;;19.90;47.83;101443.09;4977920;28;20041;-63
2022/10/30 07:03:51;;;;;;;5.43;2.40;;;;;;;19.92;47.49;101441.06;4981470;28;20057;-63
2022/10/30 07:06:17;;;;;;;8.30;2.90;;;;;;;19.96;48.15;101445.09;4949014;28;20072;-64
2022/10/30 07:08:42;;;;;;;13.70;3.38;;;;;;;20.03;47.66;101443.41;4966297;28;20048;-64
2022/10/30 07:11:08;;;;;;;6.80;2.63;;;;;;;20.06;47.92;101429.44;4985931;28;20049;-64
2022/10/30 07:13:33;;;;;;;6.90;2.50;;;;;;;20.13;47.73;101433.13;4999282;28;20035;-63
2022/10/30 07:15:58;;;;;;;4.40;2.28;;;;;;;20.19;47.60;101428.88;4981020;28;20398;-64
2022/10/30 07:18:24;;;;;;;3.92;2.45;;;;;;;20.20;47.32;101426.00;4983895;28;20023;-63
2022/10/30 07:20:55;;;;;;;5.15;2.50;;;;;;;20.31;47.89;101422.06;4982479;28;20049;-64
2022/10/30 07:23:20;;;;;;;6.60;3.45;;;;;;;20.37;47.73;101426.78;4982166;28;20042;-64
2022/10/30 07:25:45;;;;;;;7.85;2.67;;;;;;;20.42;47.85;101423.50;4959651;28;20030;-64
2022/10/30 07:28:11;;;;;;;6.15;2.38;;;;;;;20.49;47.45;101432.69;4971489;28;20030;-64
2022/10/30 07:30:36;;;;;;;10.57;3.08;;;;;;;20.55;48.02;101423.78;4930311;28;20042;-64
2022/10/30 07:33:04;;;;;;;6.05;2.45;;;;;;;20.62;48.26;101425.63;4970731;28;20516;-64
2022/10/30 07:35:30;;;;;;;8.40;4.10;;;;;;;20.73;47.51;101417.03;4979591;28;20035;-64
2022/10/30 07:38:09;;;;;;;9.02;3.03;;;;;;;20.84;47.95;101407.59;4974234;28;20031;-64
2022/10/30 07:40:35;;;;;;;5.30;2.65;;;;;;;21.01;46.98;101416.47;4967289;28;20117;-64
2022/10/30 07:43:02;;;;;;;14.90;3.45;;;;;;;21.10;47.63;101415.44;4972553;28;20481;-64
2022/10/30 07:45:27;;;;;;;5.60;2.53;;;;;;;21.25;47.55;101417.16;4950423;28;20031;-64
2022/10/30 07:47:53;;;;;;;9.02;2.40;;;;;;;21.42;47.38;101418.69;4980622;28;20135;-64
2022/10/30 07:50:18;;;;;;;6.32;2.40;;;;;;;21.53;47.74;101416.53;4976511;28;20031;-64
2022/10/30 07:52:44;;;;;;;8.27;3.22;;;;;;;21.70;47.04;101421.66;4971370;28;20030;-64
2022/10/30 07:55:10;;;;;;;9.52;2.65;;;;;;;21.86;46.77;101431.53;4971413;28;20023;-64
2022/10/30 07:57:39;;;;;;;6.20;2.50;;;;;;;22.00;46.71;101431.56;4971902;28;20105;-64
2022/10/30 08:00:07;;;;;;;6.13;2.63;;;;;;;22.15;47.25;101431.56;4971715;28;20397;-64
2022/10/30 08:02:32;;;;;;;9.32;2.63;;;;;;;22.29;47.08;101427.97;4971264;28;20031;-67
2022/10/30 08:04:58;;;;;;;6.78;2.35;;;;;;;22.47;47.53;101430.28;4961697;28;20401;-67
2022/10/30 08:07:23;;;;;;;6.60;2.13;;;;;;;22.65;46.57;101427.16;4944361;28;20161;-64
2022/10/30 08:09:49;;;;;;;3.33;2.30;;;;;;;22.82;47.16;101418.53;4965371;28;20026;-65
2022/10/30 08:12:14;;;;;;;13.57;2.80;;;;;;;23.06;47.07;101426.31;4948910;28;20034;-65
2022/10/30 08:14:40;;;;;;;12.75;2.83;;;;;;;23.29;46.57;101419.78;4977458;28;20520;-65
2022/10/30 08:17:06;;;;;;;5.50;2.55;;;;;;;23.49;46.26;101410.75;4979072;28;20488;-65
2022/10/30 08:19:32;;;;;;;10.45;3.15;;;;;;;23.74;46.64;101413.84;4967440;28;20503;-65
2022/10/30 08:21:57;;;;;;;13.25;4.38;;;;;;;23.96;46.22;101414.59;4952345;28;20034;-65
2022/10/30 08:24:22;;;;;;;5.35;3.05;;;;;;;24.16;46.46;101399.16;4959168;28;20031;-65
2022/10/30 08:26:51;;;;;;;11.02;3.03;;;;;;;24.40;45.76;101401.34;4990063;28;20111;-64
2022/10/30 08:29:16;;;;;;;5.55;2.63;;;;;;;24.52;45.51;101399.72;4973204;28;20026;-64
2022/10/30 08:31:41;;;;;;;6.40;3.55;;;;;;;24.59;45.74;101403.34;4967083;28;20039;-65
2022/10/30 08:34:08;;;;;;;7.60;2.67;;;;;;;24.71;45.11;101407.16;4967429;28;20600;-64
2022/10/30 08:36:33;;;;;;;11.50;2.53;;;;;;;25.00;44.99;101402.38;4966179;28;20027;-65
2022/10/30 08:38:59;;;;;;;6.35;2.10;;;;;;;25.18;45.12;101408.09;4961714;28;20023;-65
2022/10/30 08:41:24;;;;;;;7.47;2.65;;;;;;;25.39;44.98;101410.63;4979261;28;20061;-65
2022/10/30 08:43:50;;;;;;;8.52;2.42;;;;;;;25.66;44.96;101401.31;4983404;28;20046;-65
2022/10/30 08:46:15;;;;;;;6.10;3.10;;;;;;;25.87;44.85;101389.25;4984167;28;20031;-65
2022/10/30 08:48:40;;;;;;;6.03;2.80;;;;;;;26.04;44.79;101398.72;4968713;28;20078;-65
2022/10/30 08:51:06;;;;;;;7.65;2.85;;;;;;;26.19;44.59;101401.19;4982956;28;20047;-65
2022/10/30 08:53:31;;;;;;;6.32;2.78;;;;;;;26.35;44.29;101407.06;4984498;28;20400;-65
2022/10/30 08:55:56;;;;;;;8.38;2.78;;;;;;;26.49;44.17;101410.59;4983795;28;20126;-65
2022/10/30 08:58:22;;;;;;;7.70;2.75;;;;;;;26.58;44.29;101403.75;4984289;28;20026;-64
2022/10/30 09:00:47;;;;;;;6.88;2.45;;;;;;;26.67;44.15;101404.34;4985123;28;20022;-64
2022/10/30 09:03:13;;;;;;;6.20;3.40;;;;;;;26.69;43.98;101397.56;4963844;28;20489;-64
2022/10/30 09:05:38;;;;;;;10.15;2.90;;;;;;;26.78;44.08;101403.63;4947904;28;20453;-65
2022/10/30 09:08:04;;;;;;;7.50;2.75;;;;;;;26.96;44.27;101399.13;4984057;28;20043;-64
2022/10/30 09:10:29;;;;;;;8.10;2.33;;;;;;;27.40;43.12;101397.28;4972418;28;20041;-64
2022/10/30 09:12:58;;;;;;;6.50;3.15;;;;;;;27.52;43.24;101403.75;4974975;28;20066;-65
2022/10/30 09:15:24;;;;;;;7.65;3.30;;;;;;;27.55;42.69;101397.81;4966222;28;20108;-64
2022/10/30 09:17:58;;;;;;;5.10;2.30;;;;;;;27.67;42.40;101401.47;4978753;28;20484;-65
2022/10/30 09:20:23;;;;;;;6.25;2.88;;;;;;;27.82;42.75;101398.38;4989008;28;20154;-65
2022/10/30 09:22:49;;;;;;;7.63;2.60;;;;;;;28.14;42.71;101398.00;4987023;28;20034;-65
2022/10/30 09:25:14;;;;;;;8.90;2.78;;;;;;;28.49;42.22;101392.69;4966846;28;20047;-65
2022/10/30 09:27:40;;;;;;;12.93;4.03;;;;;;;29.06;41.88;101395.91;4983017;28;20089;-66
2022/10/30 09:30:06;;;;;;;12.77;2.20;;;;;;;29.54;40.88;101393.00;4968049;28;20027;-65
2022/10/30 09:32:31;;;;;;;5.32;2.78;;;;;;;29.80;40.65;101398.88;4982437;28;20373;-66
2022/10/30 09:34:57;;;;;;;5.88;3.15;;;;;;;30.01;40.39;101398.25;4983159;28;20121;-65
2022/10/30 09:37:23;;;;;;;8.13;2.70;;;;;;;30.02;40.22;101396.31;4967643;28;20066;-65
2022/10/30 09:39:48;;;;;;;9.70;2.58;;;;;;;30.02;40.19;101407.38;4966337;28;20030;-66
2022/10/30 09:42:27;;;;;;;6.07;2.17;;;;;;;30.27;39.54;101407.91;4983327;28;20034;-66
2022/10/30 09:44:53;;;;;;;4.75;2.35;;;;;;;30.51;39.82;101397.66;4986220;28;20117;-66
2022/10/30 09:47:38;;;;;;;6.03;2.40;;;;;;;30.96;39.45;101392.19;4982708;28;20568;-66
2022/10/30 09:50:16;;;;;;;6.25;2.50;;;;;;;31.20;38.92;101390.94;4983862;28;20522;-66
2022/10/30 09:52:49;;;;;;;6.78;2.75;;;;;;;31.50;38.35;101385.06;5007634;28;20404;-68
2022/10/30 09:55:17;;;;;;;7.03;2.63;;;;;;;31.93;37.81;101393.47;4983734;28;20154;-66
2022/10/30 09:57:51;;;;;;;9.88;3.15;;;;;;;32.20;37.87;101399.94;4983773;28;20110;-66
2022/10/30 10:00:22;;;;;;;9.85;2.90;;;;;;;32.57;36.78;101389.03;4984805;28;20038;-66
2022/10/30 10:03:11;;;;;;;4.63;2.25;;;;;;;32.79;37.16;101392.59;4984690;28;20084;-66
2022/10/30 10:05:49;;;;;;;4.85;2.25;;;;;;;32.77;36.60;101389.28;4986458;28;20378;-68
2022/10/30 10:08:21;;;;;;;4.18;2.42;;;;;;;33.28;36.31;101392.50;4988009;28;20118;-68
2022/10/30 10:11:07;;;;;;;;;;;;;;;33.55;35.95;101396.06;4975439;28;20527;-66
2022/10/30 10:13:41;;;;;;;13.73;3.22;;;;;;;33.79;36.13;101397.34;4967054;28;19928;-68
2022/10/30 10:16:12;;;;;;;9.80;3.13;;;;;;;34.11;35.61;101394.50;4981314;28;20109;-66
2022/10/30 10:18:44;;;;;;;9.40;2.35;;;;;;;34.37;34.53;101398.19;4983888;28;20561;-67
2022/10/30 10:21:25;;;;;;;7.28;2.75;;;;;;;34.65;34.90;101389.41;4985873;28;20050;-67
2022/10/30 10:23:53;;;;;;;9.10;3.03;;;;;;;34.76;34.76;101385.53;4983227;28;20088;-67
2022/10/30 10:26:31;;;;;;;11.65;2.50;;;;;;;34.74;34.48;101384.97;4982499;28;20574;-68
2022/10/30 10:29:11;;;;;;;10.30;2.40;;;;;;;34.94;33.77;101387.78;4983217;28;20435;-68
2022/10/30 10:31:51;;;;;;;12.65;2.80;;;;;;;35.07;33.53;101381.69;4983723;28;20105;-68
2022/10/30 10:34:19;;;;;;;12.15;2.47;;;;;;;35.16;33.37;101384.75;4985904;28;20035;-68
2022/10/30 10:36:57;;;;;;;6.25;2.90;;;;;;;35.17;33.49;101380.03;4981123;28;20447;-68
2022/10/30 10:40:21;;;;;;;7.47;2.92;;;;;;;35.06;32.97;101373.59;4962584;28;20066;-68
2022/10/30 10:42:56;;;;;;;7.68;2.55;;;;;;;35.08;34.00;101372.22;4951584;28;20043;-68
2022/10/30 10:45:36;;;;;;;6.40;2.40;;;;;;;35.08;32.71;101366.66;4953387;29;20190;-68
2022/10/30 10:48:30;;;;;;;8.98;3.05;;;;;;;35.22;33.19;101360.53;4971499;28;20065;-68
2022/10/30 10:51:09;;;;;;;13.20;2.40;;;;;;;35.16;33.12;101356.91;4972158;28;20073;-68
2022/10/30 10:53:48;;;;;;;4.53;2.55;;;;;;;35.15;32.33;101360.78;4972250;28;20508;-68
2022/10/30 10:56:13;;;;;;;8.85;2.65;;;;;;;35.09;33.02;101368.31;4961529;28;20063;-67
2022/10/30 10:58:55;;;;;;;10.68;2.80;;;;;;;35.06;32.54;101368.91;4953037;29;20077;-68
2022/10/30 11:01:25;;;;;;;8.88;1.88;;;;;;;35.09;32.10;101368.31;4956644;28;20039;-68
2022/10/30 11:04:00;;;;;;;9.73;2.53;;;;;;;35.20;32.02;101362.75;4972591;28;20396;-68
2022/10/30 11:06:34;;;;;;;4.82;1.98;;;;;;;35.28;32.38;101359.41;4972286;28;20034;-68
2022/10/30 11:09:15;;;;;;;7.03;2.20;;;;;;;35.39;31.79;101355.50;4972161;28;20543;-68
2022/10/30 11:11:42;;;;;;;4.13;2.38;;;;;;;35.44;31.86;101363.84;4972078;28;20027;-68
2022/10/30 11:14:17;;;;;;;10.32;2.92;;;;;;;35.44;32.04;101358.25;4972074;28;20567;-68
2022/10/30 11:16:45;;;;;;;9.80;2.17;;;;;;;35.64;31.85;101374.97;4972041;28;20063;-68
2022/10/30 11:19:10;;;;;;;6.43;3.15;;;;;;;35.72;31.70;101366.03;4971936;28;20027;-68
2022/10/30 11:21:43;;;;;;;9.35;2.47;;;;;;;35.84;31.44;101368.53;4940300;28;20061;-68
2022/10/30 11:24:31;;;;;;;12.73;2.38;;;;;;;35.81;31.38;101374.66;4971868;28;20082;-68
2022/10/30 11:27:17;;;;;;;11.73;3.05;;;;;;;35.79;31.16;101365.75;4955651;28;20031;-69
2022/10/30 11:29:58;;;;;;;6.45;2.85;;;;;;;35.57;31.32;101363.28;4971856;28;20041;-68
2022/10/30 11:32:29;;;;;;;8.87;3.10;;;;;;;35.35;31.43;101358.00;4952537;29;20039;-68